sensor_id;sensor_type;location;lat;lon;timestamp;pressure;altitude;pressure_sealevel;temperature;humidity
50682;BME280;36779;52.168;20.878;2023-12-04T00:03:02;100848.27;;;-2.32;77.93
50682;BME280;36779;52.168;20.878;2023-12-04T00:05:36;100846.50;;;-2.34;77.92
50682;BME280;36779;52.168;20.878;2023-12-04T00:08:05;100843.83;;;-2.37;77.94
50682;BME280;36779;52.168;20.878;2023-12-04T00:10:55;100841.46;;;-2.39;78.05
50682;BME280;36779;52.168;20.878;2023-12-04T00:13:29;100844.90;;;-2.42;77.93
50682;BME280;36779;52.168;20.878;2023-12-04T00:16:10;100846.88;;;-2.43;77.97
50682;BME280;36779;52.168;20.878;2023-12-04T00:18:50;100848.62;;;-2.43;77.92
50682;BME280;36779;52.168;20.878;2023-12-04T00:21:18;100851.05;;;-2.43;77.84
50682;BME280;36779;52.168;20.878;2023-12-04T00:24:07;100853.58;;;-2.41;77.68
50682;BME280;36779;52.168;20.878;2023-12-04T00:26:38;100854.65;;;-2.38;77.81
50682;BME280;36779;52.168;20.878;2023-12-04T00:29:27;100858.85;;;-2.34;77.85
50682;BME280;36779;52.168;20.878;2023-12-04T00:32:21;100861.61;;;-2.30;77.91
50682;BME280;36779;52.168;20.878;2023-12-04T00:34:52;100861.48;;;-2.28;77.93
50682;BME280;36779;52.168;20.878;2023-12-04T00:37:22;100866.33;;;-2.27;77.96
50682;BME280;36779;52.168;20.878;2023-12-04T00:39:55;100864.42;;;-2.27;77.84
50682;BME280;36779;52.168;20.878;2023-12-04T00:42:49;100868.71;;;-2.29;77.95
50682;BME280;36779;52.168;20.878;2023-12-04T00:45:19;100870.28;;;-2.29;78.02
50682;BME280;36779;52.168;20.878;2023-12-04T00:47:58;100870.63;;;-2.29;78.00
50682;BME280;36779;52.168;20.878;2023-12-04T00:50:41;100876.29;;;-2.31;77.96
50682;BME280;36779;52.168;20.878;2023-12-04T00:53:12;100877.79;;;-2.34;77.99
50682;BME280;36779;52.168;20.878;2023-12-04T00:56:01;100876.37;;;-2.37;77.95
50682;BME280;36779;52.168;20.878;2023-12-04T00:58:29;100878.03;;;-2.39;77.96
50682;BME280;36779;52.168;20.878;2023-12-04T01:01:00;100880.83;;;-2.39;77.86
50682;BME280;36779;52.168;20.878;2023-12-04T01:03:49;100881.95;;;-2.38;77.82
50682;BME280;36779;52.168;20.878;2023-12-04T01:06:29;100883.02;;;-2.34;77.79
50682;BME280;36779;52.168;20.878;2023-12-04T01:09:08;100887.84;;;-2.28;77.95
50682;BME280;36779;52.168;20.878;2023-12-04T01:11:55;100889.89;;;-2.24;77.87
50682;BME280;36779;52.168;20.878;2023-12-04T01:14:26;100886.85;;;-2.22;77.75
50682;BME280;36779;52.168;20.878;2023-12-04T01:17:06;100891.23;;;-2.19;77.89
50682;BME280;36779;52.168;20.878;2023-12-04T01:19:44;100892.73;;;-2.13;78.01
50682;BME280;36779;52.168;20.878;2023-12-04T01:22:34;100891.17;;;-2.10;77.99
50682;BME280;36779;52.168;20.878;2023-12-04T01:25:05;100889.98;;;-2.10;77.97
50682;BME280;36779;52.168;20.878;2023-12-04T01:27:54;100893.73;;;-2.12;77.99
50682;BME280;36779;52.168;20.878;2023-12-04T01:30:43;100897.25;;;-2.14;78.16
50682;BME280;36779;52.168;20.878;2023-12-04T01:33:17;100897.56;;;-2.17;78.13
50682;BME280;36779;52.168;20.878;2023-12-04T01:35:45;100899.36;;;-2.18;77.99
50682;BME280;36779;52.168;20.878;2023-12-04T01:38:35;100903.86;;;-2.21;78.07
50682;BME280;36779;52.168;20.878;2023-12-04T01:41:05;100904.39;;;-2.21;77.96
50682;BME280;36779;52.168;20.878;2023-12-04T01:43:43;100903.75;;;-2.22;77.87
50682;BME280;36779;52.168;20.878;2023-12-04T01:46:11;100908.46;;;-2.22;77.99
50682;BME280;36779;52.168;20.878;2023-12-04T01:48:47;100908.76;;;-2.22;77.90
50682;BME280;36779;52.168;20.878;2023-12-04T01:51:18;100905.67;;;-2.19;77.87
50682;BME280;36779;52.168;20.878;2023-12-04T01:53:50;100907.95;;;-2.15;78.01
50682;BME280;36779;52.168;20.878;2023-12-04T01:56:28;100920.03;;;-2.12;78.03
50682;BME280;36779;52.168;20.878;2023-12-04T01:59:01;100924.79;;;-2.14;77.95
50682;BME280;36779;52.168;20.878;2023-12-04T02:01:32;100927.34;;;-2.16;77.99
50682;BME280;36779;52.168;20.878;2023-12-04T02:04:02;100934.23;;;-2.19;78.03
50682;BME280;36779;52.168;20.878;2023-12-04T02:06:38;100941.25;;;-2.24;77.97
50682;BME280;36779;52.168;20.878;2023-12-04T02:09:13;100939.72;;;-2.29;77.93
50682;BME280;36779;52.168;20.878;2023-12-04T02:11:43;100945.06;;;-2.35;77.86
50682;BME280;36779;52.168;20.878;2023-12-04T02:14:31;100948.52;;;-2.43;77.78
50682;BME280;36779;52.168;20.878;2023-12-04T02:17:10;100949.38;;;-2.51;77.74
50682;BME280;36779;52.168;20.878;2023-12-04T02:19:44;100948.98;;;-2.54;77.73
50682;BME280;36779;52.168;20.878;2023-12-04T02:22:14;100944.77;;;-2.57;77.73
50682;BME280;36779;52.168;20.878;2023-12-04T02:24:48;100948.30;;;-2.58;77.63
50682;BME280;36779;52.168;20.878;2023-12-04T02:27:17;100947.29;;;-2.59;77.54
50682;BME280;36779;52.168;20.878;2023-12-04T02:30:07;100943.77;;;-2.58;77.60
50682;BME280;36779;52.168;20.878;2023-12-04T02:33:07;100945.25;;;-2.61;77.56
50682;BME280;36779;52.168;20.878;2023-12-04T02:35:55;100945.82;;;-2.62;77.66
50682;BME280;36779;52.168;20.878;2023-12-04T02:38:45;100946.54;;;-2.62;77.81
50682;BME280;36779;52.168;20.878;2023-12-04T02:41:33;100947.81;;;-2.63;77.83
50682;BME280;36779;52.168;20.878;2023-12-04T02:44:14;100947.28;;;-2.64;77.87
50682;BME280;36779;52.168;20.878;2023-12-04T02:47:03;100943.52;;;-2.65;77.90
50682;BME280;36779;52.168;20.878;2023-12-04T02:49:38;100948.11;;;-2.67;77.87
50682;BME280;36779;52.168;20.878;2023-12-04T02:52:26;100947.90;;;-2.70;78.01
50682;BME280;36779;52.168;20.878;2023-12-04T02:55:15;100953.26;;;-2.73;77.88
50682;BME280;36779;52.168;20.878;2023-12-04T02:57:46;100959.82;;;-2.76;77.89
50682;BME280;36779;52.168;20.878;2023-12-04T03:00:18;100961.02;;;-2.79;77.92
50682;BME280;36779;52.168;20.878;2023-12-04T03:03:07;100961.10;;;-2.81;77.82
50682;BME280;36779;52.168;20.878;2023-12-04T03:05:56;100961.73;;;-2.80;77.81
50682;BME280;36779;52.168;20.878;2023-12-04T03:08:30;100964.75;;;-2.77;77.84
50682;BME280;36779;52.168;20.878;2023-12-04T03:11:19;100967.65;;;-2.76;77.74
50682;BME280;36779;52.168;20.878;2023-12-04T03:13:50;100969.45;;;-2.73;77.85
50682;BME280;36779;52.168;20.878;2023-12-04T03:16:39;100971.27;;;-2.71;77.78
50682;BME280;36779;52.168;20.878;2023-12-04T03:19:28;100975.23;;;-2.70;77.86
50682;BME280;36779;52.168;20.878;2023-12-04T03:22:18;100970.52;;;-2.70;77.96
50682;BME280;36779;52.168;20.878;2023-12-04T03:25:08;100969.94;;;-2.72;77.81
50682;BME280;36779;52.168;20.878;2023-12-04T03:28:01;100976.84;;;-2.75;77.90
50682;BME280;36779;52.168;20.878;2023-12-04T03:30:44;100978.24;;;-2.80;77.93
50682;BME280;36779;52.168;20.878;2023-12-04T03:33:33;100979.64;;;-2.84;77.81
50682;BME280;36779;52.168;20.878;2023-12-04T03:36:08;100982.20;;;-2.87;77.98
50682;BME280;36779;52.168;20.878;2023-12-04T03:38:57;100977.98;;;-2.91;77.81
50682;BME280;36779;52.168;20.878;2023-12-04T03:41:47;100982.83;;;-2.94;77.87
50682;BME280;36779;52.168;20.878;2023-12-04T03:44:36;100983.41;;;-2.96;77.81
50682;BME280;36779;52.168;20.878;2023-12-04T03:47:25;100991.15;;;-2.94;77.79
50682;BME280;36779;52.168;20.878;2023-12-04T03:50:15;100990.23;;;-2.92;77.68
50682;BME280;36779;52.168;20.878;2023-12-04T03:53:05;100991.69;;;-2.90;77.60
50682;BME280;36779;52.168;20.878;2023-12-04T03:55:55;100988.47;;;-2.88;77.72
50682;BME280;36779;52.168;20.878;2023-12-04T03:58:46;100994.35;;;-2.86;77.68
50682;BME280;36779;52.168;20.878;2023-12-04T04:01:34;100994.20;;;-2.87;77.70
50682;BME280;36779;52.168;20.878;2023-12-04T04:04:24;100993.87;;;-2.88;77.88
50682;BME280;36779;52.168;20.878;2023-12-04T04:07:15;101001.15;;;-2.91;77.90
50682;BME280;36779;52.168;20.878;2023-12-04T04:10:06;101003.58;;;-2.95;77.79
50682;BME280;36779;52.168;20.878;2023-12-04T04:12:56;101004.84;;;-3.01;77.87
50682;BME280;36779;52.168;20.878;2023-12-04T04:15:44;101002.81;;;-3.02;77.75
50682;BME280;36779;52.168;20.878;2023-12-04T04:18:34;101008.03;;;-3.02;77.89
50682;BME280;36779;52.168;20.878;2023-12-04T04:21:06;101006.71;;;-3.00;77.76
50682;BME280;36779;52.168;20.878;2023-12-04T04:23:43;101006.67;;;-2.99;77.74
50682;BME280;36779;52.168;20.878;2023-12-04T04:26:25;101005.48;;;-2.95;77.70
50682;BME280;36779;52.168;20.878;2023-12-04T04:29:13;101003.61;;;-2.92;77.92
50682;BME280;36779;52.168;20.878;2023-12-04T04:31:43;101005.34;;;-2.92;77.83
50682;BME280;36779;52.168;20.878;2023-12-04T04:34:11;101002.79;;;-2.93;77.91
50682;BME280;36779;52.168;20.878;2023-12-04T04:36:49;101002.73;;;-2.96;77.93
50682;BME280;36779;52.168;20.878;2023-12-04T04:39:19;101006.98;;;-3.02;77.84
50682;BME280;36779;52.168;20.878;2023-12-04T04:41:51;101009.25;;;-3.07;77.84
50682;BME280;36779;52.168;20.878;2023-12-04T04:44:21;101009.80;;;-3.12;77.77
50682;BME280;36779;52.168;20.878;2023-12-04T04:47:05;101015.69;;;-3.16;77.76
50682;BME280;36779;52.168;20.878;2023-12-04T04:49:53;101015.27;;;-3.18;77.77
50682;BME280;36779;52.168;20.878;2023-12-04T04:52:33;101017.51;;;-3.18;77.68
50682;BME280;36779;52.168;20.878;2023-12-04T04:55:02;101013.95;;;-3.16;77.66
50682;BME280;36779;52.168;20.878;2023-12-04T04:57:37;101012.79;;;-3.13;77.76
50682;BME280;36779;52.168;20.878;2023-12-04T05:00:25;101015.20;;;-3.08;77.86
50682;BME280;36779;52.168;20.878;2023-12-04T05:03:06;101014.05;;;-3.05;77.77
50682;BME280;36779;52.168;20.878;2023-12-04T05:05:41;101011.11;;;-3.05;77.86
50682;BME280;36779;52.168;20.878;2023-12-04T05:08:09;101011.31;;;-3.06;77.86
50682;BME280;36779;52.168;20.878;2023-12-04T05:10:52;101013.08;;;-3.07;77.84
50682;BME280;36779;52.168;20.878;2023-12-04T05:13:40;101014.30;;;-3.08;78.02
50682;BME280;36779;52.168;20.878;2023-12-04T05:16:30;101017.52;;;-3.10;77.96
50682;BME280;36779;52.168;20.878;2023-12-04T05:19:01;101022.67;;;-3.12;77.92
50682;BME280;36779;52.168;20.878;2023-12-04T05:21:44;101020.04;;;-3.16;77.91
50682;BME280;36779;52.168;20.878;2023-12-04T05:24:34;101023.35;;;-3.21;77.84
50682;BME280;36779;52.168;20.878;2023-12-04T05:27:04;101022.95;;;-3.24;77.95
50682;BME280;36779;52.168;20.878;2023-12-04T05:29:44;101026.30;;;-3.25;77.77
50682;BME280;36779;52.168;20.878;2023-12-04T05:32:17;101025.09;;;-3.26;77.87
50682;BME280;36779;52.168;20.878;2023-12-04T05:34:58;101027.80;;;-3.23;77.76
50682;BME280;36779;52.168;20.878;2023-12-04T05:37:26;101023.66;;;-3.20;77.80
50682;BME280;36779;52.168;20.878;2023-12-04T05:40:14;101025.17;;;-3.14;77.71
50682;BME280;36779;52.168;20.878;2023-12-04T05:43:03;101027.29;;;-3.11;77.95
50682;BME280;36779;52.168;20.878;2023-12-04T05:45:43;101028.80;;;-3.09;77.87
50682;BME280;36779;52.168;20.878;2023-12-04T05:48:14;101025.58;;;-3.11;77.76
50682;BME280;36779;52.168;20.878;2023-12-04T05:51:03;101027.95;;;-3.15;77.82
50682;BME280;36779;52.168;20.878;2023-12-04T05:53:38;101026.16;;;-3.17;77.82
50682;BME280;36779;52.168;20.878;2023-12-04T05:56:18;101028.71;;;-3.20;77.97
50682;BME280;36779;52.168;20.878;2023-12-04T05:58:56;101031.45;;;-3.23;77.83
50682;BME280;36779;52.168;20.878;2023-12-04T06:01:29;101035.94;;;-3.27;77.81
50682;BME280;36779;52.168;20.878;2023-12-04T06:04:17;101035.19;;;-3.31;77.78
50682;BME280;36779;52.168;20.878;2023-12-04T06:06:54;101035.79;;;-3.33;77.84
50682;BME280;36779;52.168;20.878;2023-12-04T06:09:23;101035.55;;;-3.35;77.89
50682;BME280;36779;52.168;20.878;2023-12-04T06:11:51;101036.15;;;-3.38;77.74
50682;BME280;36779;52.168;20.878;2023-12-04T06:14:31;101045.06;;;-3.39;77.75
50682;BME280;36779;52.168;20.878;2023-12-04T06:16:59;101047.22;;;-3.36;77.81
50682;BME280;36779;52.168;20.878;2023-12-04T06:19:27;101045.34;;;-3.32;77.74
50682;BME280;36779;52.168;20.878;2023-12-04T06:21:56;101047.05;;;-3.27;77.79
50682;BME280;36779;52.168;20.878;2023-12-04T06:24:24;101051.05;;;-3.22;77.82
50682;BME280;36779;52.168;20.878;2023-12-04T06:27:04;101051.84;;;-3.16;77.94
50682;BME280;36779;52.168;20.878;2023-12-04T06:29:38;101053.77;;;-3.12;78.10
50682;BME280;36779;52.168;20.878;2023-12-04T06:32:26;101052.95;;;-3.09;77.94
50682;BME280;36779;52.168;20.878;2023-12-04T06:34:55;101054.30;;;-3.07;77.99
50682;BME280;36779;52.168;20.878;2023-12-04T06:37:36;101053.80;;;-3.08;77.95
50682;BME280;36779;52.168;20.878;2023-12-04T06:40:08;101054.12;;;-3.07;77.96
50682;BME280;36779;52.168;20.878;2023-12-04T06:42:48;101055.25;;;-3.10;77.87
50682;BME280;36779;52.168;20.878;2023-12-04T06:45:38;101053.38;;;-3.11;77.89
50682;BME280;36779;52.168;20.878;2023-12-04T06:48:26;101052.52;;;-3.11;78.00
50682;BME280;36779;52.168;20.878;2023-12-04T06:51:02;101052.00;;;-3.11;77.98
50682;BME280;36779;52.168;20.878;2023-12-04T06:53:39;101055.48;;;-3.11;78.07
50682;BME280;36779;52.168;20.878;2023-12-04T06:56:27;101056.77;;;-3.13;78.04
50682;BME280;36779;52.168;20.878;2023-12-04T06:58:56;101058.88;;;-3.13;78.01
50682;BME280;36779;52.168;20.878;2023-12-04T07:01:27;101062.34;;;-3.13;78.10
50682;BME280;36779;52.168;20.878;2023-12-04T07:03:58;101062.34;;;-3.13;77.91
50682;BME280;36779;52.168;20.878;2023-12-04T07:06:29;101064.27;;;-3.13;77.99
50682;BME280;36779;52.168;20.878;2023-12-04T07:08:57;101062.58;;;-3.15;77.88
50682;BME280;36779;52.168;20.878;2023-12-04T07:11:28;101063.27;;;-3.15;78.01
50682;BME280;36779;52.168;20.878;2023-12-04T07:14:16;101061.16;;;-3.14;77.88
50682;BME280;36779;52.168;20.878;2023-12-04T07:17:06;101063.29;;;-3.11;77.90
50682;BME280;36779;52.168;20.878;2023-12-04T07:19:54;101065.17;;;-3.05;77.87
50682;BME280;36779;52.168;20.878;2023-12-04T07:22:42;101067.90;;;-2.99;77.83
50682;BME280;36779;52.168;20.878;2023-12-04T07:25:33;101067.39;;;-2.91;78.00
50682;BME280;36779;52.168;20.878;2023-12-04T07:28:22;101071.59;;;-2.82;78.08
50682;BME280;36779;52.168;20.878;2023-12-04T07:31:10;101073.89;;;-2.75;77.94
50682;BME280;36779;52.168;20.878;2023-12-04T07:33:59;101075.18;;;-2.68;78.11
50682;BME280;36779;52.168;20.878;2023-12-04T07:36:49;101071.39;;;-2.65;78.13
50682;BME280;36779;52.168;20.878;2023-12-04T07:39:31;101072.93;;;-2.64;78.07
50682;BME280;36779;52.168;20.878;2023-12-04T07:41:59;101077.66;;;-2.64;78.11
50682;BME280;36779;52.168;20.878;2023-12-04T07:44:50;101080.45;;;-2.64;77.95
50682;BME280;36779;52.168;20.878;2023-12-04T07:47:38;101077.04;;;-2.66;77.94
50682;BME280;36779;52.168;20.878;2023-12-04T07:50:07;101081.41;;;-2.66;78.02
50682;BME280;36779;52.168;20.878;2023-12-04T07:52:55;101078.92;;;-2.69;78.00
50682;BME280;36779;52.168;20.878;2023-12-04T07:55:38;101078.88;;;-2.73;77.98
50682;BME280;36779;52.168;20.878;2023-12-04T07:58:26;101076.09;;;-2.73;77.97
50682;BME280;36779;52.168;20.878;2023-12-04T08:01:15;101078.74;;;-2.70;78.01
50682;BME280;36779;52.168;20.878;2023-12-04T08:04:03;101081.39;;;-2.66;77.95
50682;BME280;36779;52.168;20.878;2023-12-04T08:06:52;101087.90;;;-2.59;78.12
50682;BME280;36779;52.168;20.878;2023-12-04T08:09:41;101094.31;;;-2.54;77.95
50682;BME280;36779;52.168;20.878;2023-12-04T08:12:30;101093.52;;;-2.48;78.04
50682;BME280;36779;52.168;20.878;2023-12-04T08:15:18;101091.11;;;-2.44;78.03
50682;BME280;36779;52.168;20.878;2023-12-04T08:18:11;101088.70;;;-2.40;78.16
50682;BME280;36779;52.168;20.878;2023-12-04T08:21:00;101091.85;;;-2.36;78.19
50682;BME280;36779;52.168;20.878;2023-12-04T08:23:49;101092.19;;;-2.36;78.06
50682;BME280;36779;52.168;20.878;2023-12-04T08:26:37;101089.54;;;-2.35;78.24
50682;BME280;36779;52.168;20.878;2023-12-04T08:29:06;101093.21;;;-2.35;78.03
50682;BME280;36779;52.168;20.878;2023-12-04T08:31:33;101095.66;;;-2.36;78.07
50682;BME280;36779;52.168;20.878;2023-12-04T08:34:17;101097.73;;;-2.40;77.94
50682;BME280;36779;52.168;20.878;2023-12-04T08:37:05;101102.73;;;-2.43;77.93
50682;BME280;36779;52.168;20.878;2023-12-04T08:39:47;101105.56;;;-2.43;77.88
50682;BME280;36779;52.168;20.878;2023-12-04T08:42:37;101108.20;;;-2.44;77.90
50682;BME280;36779;52.168;20.878;2023-12-04T08:45:25;101105.31;;;-2.38;77.84
50682;BME280;36779;52.168;20.878;2023-12-04T08:48:14;101103.98;;;-2.30;77.91
50682;BME280;36779;52.168;20.878;2023-12-04T08:51:05;101109.59;;;-2.23;77.88
50682;BME280;36779;52.168;20.878;2023-12-04T08:53:53;101116.90;;;-2.19;78.02
50682;BME280;36779;52.168;20.878;2023-12-04T08:56:30;101113.67;;;-2.17;77.91
50682;BME280;36779;52.168;20.878;2023-12-04T08:59:18;101115.69;;;-2.10;78.20
50682;BME280;36779;52.168;20.878;2023-12-04T09:02:06;101115.45;;;-2.05;78.16
50682;BME280;36779;52.168;20.878;2023-12-04T09:04:56;101117.75;;;-2.01;78.17
50682;BME280;36779;52.168;20.878;2023-12-04T09:07:44;101121.16;;;-2.00;78.08
50682;BME280;36779;52.168;20.878;2023-12-04T09:10:36;101122.94;;;-1.96;78.23
50682;BME280;36779;52.168;20.878;2023-12-04T09:13:45;101117.55;;;-1.96;78.07
50682;BME280;36779;52.168;20.878;2023-12-04T09:16:24;101116.35;;;-1.97;77.97
50682;BME280;36779;52.168;20.878;2023-12-04T09:19:04;101117.27;;;-1.98;78.00
50682;BME280;36779;52.168;20.878;2023-12-04T09:21:35;101120.05;;;-1.98;78.13
50682;BME280;36779;52.168;20.878;2023-12-04T09:24:24;101122.48;;;-1.98;77.93
50682;BME280;36779;52.168;20.878;2023-12-04T09:27:12;101124.81;;;-2.00;77.99
50682;BME280;36779;52.168;20.878;2023-12-04T09:29:51;101126.08;;;-2.01;77.96
50682;BME280;36779;52.168;20.878;2023-12-04T09:32:22;101123.84;;;-1.97;78.04
50682;BME280;36779;52.168;20.878;2023-12-04T09:34:50;101121.42;;;-1.89;78.12
50682;BME280;36779;52.168;20.878;2023-12-04T09:37:38;101121.09;;;-1.81;78.16
50682;BME280;36779;52.168;20.878;2023-12-04T09:40:08;101113.77;;;-1.73;78.04
50682;BME280;36779;52.168;20.878;2023-12-04T09:42:57;101105.62;;;-1.66;78.25
50682;BME280;36779;52.168;20.878;2023-12-04T09:45:27;101101.96;;;-1.58;78.27
50682;BME280;36779;52.168;20.878;2023-12-04T09:48:00;101103.38;;;-1.51;78.19
50682;BME280;36779;52.168;20.878;2023-12-04T09:50:29;101105.12;;;-1.46;78.41
50682;BME280;36779;52.168;20.878;2023-12-04T09:53:10;101102.67;;;-1.47;78.34
50682;BME280;36779;52.168;20.878;2023-12-04T09:55:38;101101.80;;;-1.47;78.24
50682;BME280;36779;52.168;20.878;2023-12-04T09:58:13;101100.88;;;-1.45;78.22
50682;BME280;36779;52.168;20.878;2023-12-04T10:00:46;101104.20;;;-1.42;78.27
50682;BME280;36779;52.168;20.878;2023-12-04T10:03:18;101106.02;;;-1.39;78.35
50682;BME280;36779;52.168;20.878;2023-12-04T10:05:47;101106.48;;;-1.38;78.21
50682;BME280;36779;52.168;20.878;2023-12-04T10:08:38;101104.77;;;-1.35;78.23
50682;BME280;36779;52.168;20.878;2023-12-04T10:11:08;101103.97;;;-1.32;78.25
50682;BME280;36779;52.168;20.878;2023-12-04T10:13:43;101102.71;;;-1.28;78.35
50682;BME280;36779;52.168;20.878;2023-12-04T10:16:34;101097.20;;;-1.18;78.40
50682;BME280;36779;52.168;20.878;2023-12-04T10:19:16;101097.48;;;-1.09;78.39
50682;BME280;36779;52.168;20.878;2023-12-04T10:21:55;101096.13;;;-1.02;78.34
50682;BME280;36779;52.168;20.878;2023-12-04T10:24:32;101090.94;;;-0.95;78.27
50682;BME280;36779;52.168;20.878;2023-12-04T10:27:23;101089.17;;;-0.88;78.21
50682;BME280;36779;52.168;20.878;2023-12-04T10:30:24;101085.90;;;-0.77;78.26
50682;BME280;36779;52.168;20.878;2023-12-04T10:32:58;101088.48;;;-0.65;78.24
50682;BME280;36779;52.168;20.878;2023-12-04T10:35:31;101086.70;;;-0.57;78.26
50682;BME280;36779;52.168;20.878;2023-12-04T10:38:08;101081.13;;;-0.43;78.62
50682;BME280;36779;52.168;20.878;2023-12-04T10:40:40;101078.52;;;-0.12;78.99
50682;BME280;36779;52.168;20.878;2023-12-04T10:43:14;101080.67;;;0.05;78.62
50682;BME280;36779;52.168;20.878;2023-12-04T10:46:26;101080.17;;;0.11;78.31
50682;BME280;36779;52.168;20.878;2023-12-04T10:49:21;101078.10;;;0.11;78.22
50682;BME280;36779;52.168;20.878;2023-12-04T10:52:42;101084.39;;;0.11;78.22
50682;BME280;36779;52.168;20.878;2023-12-04T10:55:11;101085.92;;;0.11;78.18
50682;BME280;36779;52.168;20.878;2023-12-04T10:58:00;101080.84;;;0.11;78.30
50682;BME280;36779;52.168;20.878;2023-12-04T11:00:29;101083.86;;;0.10;78.10
50682;BME280;36779;52.168;20.878;2023-12-04T11:03:15;101080.50;;;0.08;78.02
50682;BME280;36779;52.168;20.878;2023-12-04T11:06:07;101083.42;;;0.02;78.04
50682;BME280;36779;52.168;20.878;2023-12-04T11:09:14;101081.01;;;-0.02;78.13
50682;BME280;36779;52.168;20.878;2023-12-04T11:12:03;101082.06;;;0.01;78.28
50682;BME280;36779;52.168;20.878;2023-12-04T11:14:44;101083.23;;;-0.01;78.09
50682;BME280;36779;52.168;20.878;2023-12-04T11:17:33;101083.75;;;-0.04;78.03
50682;BME280;36779;52.168;20.878;2023-12-04T11:20:24;101082.02;;;-0.05;77.97
50682;BME280;36779;52.168;20.878;2023-12-04T11:22:57;101082.79;;;-0.06;77.99
50682;BME280;36779;52.168;20.878;2023-12-04T11:25:27;101088.60;;;-0.07;77.97
50682;BME280;36779;52.168;20.878;2023-12-04T11:27:56;101085.14;;;-0.11;77.93
50682;BME280;36779;52.168;20.878;2023-12-04T11:30:39;101085.93;;;-0.13;77.99
50682;BME280;36779;52.168;20.878;2023-12-04T11:33:13;101079.20;;;-0.11;78.10
50682;BME280;36779;52.168;20.878;2023-12-04T11:35:47;101076.04;;;-0.15;77.84
50682;BME280;36779;52.168;20.878;2023-12-04T11:38:17;101074.13;;;-0.18;77.92
50682;BME280;36779;52.168;20.878;2023-12-04T11:41:02;101074.97;;;-0.17;77.98
50682;BME280;36779;52.168;20.878;2023-12-04T11:43:44;101069.30;;;-0.16;78.05
50682;BME280;36779;52.168;20.878;2023-12-04T11:46:14;101072.18;;;-0.14;78.10
50682;BME280;36779;52.168;20.878;2023-12-04T11:48:54;101067.83;;;-0.15;78.09
50682;BME280;36779;52.168;20.878;2023-12-04T11:51:45;101068.48;;;-0.14;78.08
50682;BME280;36779;52.168;20.878;2023-12-04T11:54:25;101066.91;;;-0.11;77.92
50682;BME280;36779;52.168;20.878;2023-12-04T11:57:19;101065.77;;;-0.08;77.99
50682;BME280;36779;52.168;20.878;2023-12-04T11:59:52;101065.09;;;-0.05;77.98
50682;BME280;36779;52.168;20.878;2023-12-04T12:02:20;101063.58;;;-0.03;77.89
50682;BME280;36779;52.168;20.878;2023-12-04T12:04:53;101061.83;;;0.01;78.04
50682;BME280;36779;52.168;20.878;2023-12-04T12:07:25;101065.77;;;0.02;77.99
50682;BME280;36779;52.168;20.878;2023-12-04T12:09:59;101060.37;;;0.05;78.03
50682;BME280;36779;52.168;20.878;2023-12-04T12:12:29;101061.88;;;0.10;78.09
50682;BME280;36779;52.168;20.878;2023-12-04T12:14:58;101059.33;;;0.08;77.93
50682;BME280;36779;52.168;20.878;2023-12-04T12:17:28;101057.20;;;0.06;78.02
50682;BME280;36779;52.168;20.878;2023-12-04T12:20:00;101055.52;;;0.01;77.92
50682;BME280;36779;52.168;20.878;2023-12-04T12:22:33;101057.66;;;-0.03;77.77
50682;BME280;36779;52.168;20.878;2023-12-04T12:25:06;101055.71;;;-0.06;77.88
50682;BME280;36779;52.168;20.878;2023-12-04T12:27:40;101047.42;;;-0.08;77.86
50682;BME280;36779;52.168;20.878;2023-12-04T12:30:14;101051.43;;;-0.11;77.83
50682;BME280;36779;52.168;20.878;2023-12-04T12:32:46;101046.94;;;-0.16;77.72
50682;BME280;36779;52.168;20.878;2023-12-04T12:35:14;101043.43;;;-0.19;77.93
50682;BME280;36779;52.168;20.878;2023-12-04T12:37:43;101042.86;;;-0.22;77.78
50682;BME280;36779;52.168;20.878;2023-12-04T12:40:14;101044.98;;;-0.26;77.76
50682;BME280;36779;52.168;20.878;2023-12-04T12:42:42;101042.49;;;-0.32;77.64
50682;BME280;36779;52.168;20.878;2023-12-04T12:45:10;101042.61;;;-0.38;77.66
50682;BME280;36779;52.168;20.878;2023-12-04T12:47:50;101042.27;;;-0.41;77.73
50682;BME280;36779;52.168;20.878;2023-12-04T12:50:20;101036.32;;;-0.44;77.67
50682;BME280;36779;52.168;20.878;2023-12-04T12:52:51;101036.15;;;-0.48;77.61
50682;BME280;36779;52.168;20.878;2023-12-04T12:55:28;101031.80;;;-0.52;77.58
50682;BME280;36779;52.168;20.878;2023-12-04T12:58:16;101033.44;;;-0.57;77.65
50682;BME280;36779;52.168;20.878;2023-12-04T13:00:51;101032.70;;;-0.60;77.56
50682;BME280;36779;52.168;20.878;2023-12-04T13:03:22;101033.55;;;-0.59;77.56
50682;BME280;36779;52.168;20.878;2023-12-04T13:05:51;101037.00;;;-0.58;77.56
50682;BME280;36779;52.168;20.878;2023-12-04T13:08:29;101033.98;;;-0.54;77.57
50682;BME280;36779;52.168;20.878;2023-12-04T13:10:57;101030.83;;;-0.51;77.58
50682;BME280;36779;52.168;20.878;2023-12-04T13:13:30;101034.58;;;-0.45;77.77
50682;BME280;36779;52.168;20.878;2023-12-04T13:16:02;101027.23;;;-0.41;77.72
50682;BME280;36779;52.168;20.878;2023-12-04T13:18:33;101027.02;;;-0.43;77.54
50682;BME280;36779;52.168;20.878;2023-12-04T13:21:06;101023.00;;;-0.47;77.68
50682;BME280;36779;52.168;20.878;2023-12-04T13:23:41;101020.84;;;-0.53;77.57
50682;BME280;36779;52.168;20.878;2023-12-04T13:26:11;101016.88;;;-0.58;77.55
50682;BME280;36779;52.168;20.878;2023-12-04T13:28:53;101010.29;;;-0.62;77.57
50682;BME280;36779;52.168;20.878;2023-12-04T13:31:24;101015.05;;;-0.67;77.53
50682;BME280;36779;52.168;20.878;2023-12-04T13:33:56;101017.33;;;-0.70;77.44
50682;BME280;36779;52.168;20.878;2023-12-04T13:36:24;101012.59;;;-0.77;77.35
50682;BME280;36779;52.168;20.878;2023-12-04T13:38:56;101015.05;;;-0.85;77.45
50682;BME280;36779;52.168;20.878;2023-12-04T13:41:25;101016.09;;;-0.92;77.38
50682;BME280;36779;52.168;20.878;2023-12-04T13:44:22;101017.89;;;-1.00;77.37
50682;BME280;36779;52.168;20.878;2023-12-04T13:46:50;101017.95;;;-1.05;77.41